Time;durP1;ratioP1;P1;durP2;ratioP2;P2;SDS_P1;SDS_P2;PMS_P1;PMS_P2;Temp;Humidity;BMP_temperature;BMP_pressure;BME280_temperature;BME280_humidity;BME280_pressure;Samples;Min_cycle;Max_cycle;Signal;HPM_P1;HPM_P2
2021/10/04 00:05:14;;;;;;;10.20;7.90;;;;;;;12.18;67.92;98620.21;235811;1199;24060;-73
2021/10/04 00:10:18;;;;;;;14.00;7.20;;;;;;;12.07;68.37;98618.52;236181;1193;24072;-71
2021/10/04 00:15:24;;;;;;;10.80;6.70;;;;;;;11.98;68.82;98621.88;236279;1199;22601;-71
2021/10/04 00:20:28;;;;;;;11.00;7.80;;;;;;;11.91;69.37;98621.63;236261;1199;22452;-72
2021/10/04 00:25:33;;;;;;;14.70;9.90;;;;;;;11.84;69.70;98616.28;236171;1199;22441;-73
2021/10/04 00:30:37;;;;;;;14.80;7.30;;;;;;;11.78;70.16;98614.04;235848;1196;24108;-70
2021/10/04 00:35:42;;;;;;;11.30;7.50;;;;;;;11.74;70.19;98612.68;236294;1187;25227;-71
2021/10/04 00:40:44;;;;;;;12.70;9.20;;;;;;;11.72;70.33;98614.11;236192;1185;25282;-70
2021/10/04 00:46:00;;;;;;;12.70;9.20;;;;;;;11.69;70.52;98618.68;236019;1199;22444;-72
2021/10/04 00:51:10;;;;;;;12.40;8.40;;;;;;;11.63;70.87;98614.83;236095;1199;22456;-72
2021/10/04 00:56:14;;;;;;;16.50;9.10;;;;;;;11.58;70.86;98616.06;235968;1199;23972;-71
2021/10/04 01:01:19;;;;;;;12.30;8.80;;;;;;;11.53;71.09;98615.10;236060;1194;22531;-73
2021/10/04 01:06:23;;;;;;;12.40;9.20;;;;;;;11.47;71.28;98616.18;235584;1199;26176;-70
2021/10/04 01:11:25;;;;;;;11.40;7.70;;;;;;;11.42;71.59;98616.84;235853;1193;25112;-71
2021/10/04 01:16:29;;;;;;;13.50;8.30;;;;;;;11.38;71.75;98620.21;235775;1187;24045;-71
2021/10/04 01:21:31;;;;;;;12.30;9.10;;;;;;;11.35;71.96;98620.26;235924;1199;22447;-72
2021/10/04 01:26:34;;;;;;;13.30;9.30;;;;;;;11.32;72.15;98623.46;235987;1199;24363;-72
2021/10/04 01:31:38;;;;;;;11.70;8.00;;;;;;;11.27;72.27;98621.85;235776;1193;24056;-71
2021/10/04 01:36:41;;;;;;;13.60;9.20;;;;;;;11.22;72.33;98623.00;235624;1199;24078;-71
2021/10/04 01:41:44;;;;;;;12.70;9.00;;;;;;;11.15;72.48;98621.09;235567;1200;24129;-71
2021/10/04 01:46:47;;;;;;;12.00;7.90;;;;;;;11.06;72.56;98627.10;235496;1200;22441;-71
2021/10/04 01:51:49;;;;;;;12.00;7.50;;;;;;;11.01;72.84;98630.88;235519;1200;22453;-73
2021/10/04 01:57:00;;;;;;;11.20;8.60;;;;;;;10.99;73.13;98634.40;235626;1200;24120;-73
2021/10/04 02:02:10;;;;;;;12.40;8.00;;;;;;;10.95;73.42;98638.32;235622;1200;25215;-71
2021/10/04 02:07:13;;;;;;;10.20;7.80;;;;;;;10.91;73.53;98631.21;236027;1199;22420;-71
2021/10/04 02:12:17;;;;;;;10.80;7.70;;;;;;;10.88;73.55;98634.42;236309;1199;24200;-72
2021/10/04 02:17:21;;;;;;;12.70;8.30;;;;;;;10.87;73.75;98637.82;236028;1199;22451;-73
2021/10/04 02:22:24;;;;;;;12.20;9.40;;;;;;;10.83;73.82;98643.83;235624;1197;25099;-73
2021/10/04 02:27:26;;;;;;;10.90;8.00;;;;;;;10.80;73.97;98648.98;235603;1193;22555;-72
2021/10/04 02:32:34;;;;;;;10.20;7.40;;;;;;;10.78;74.16;98654.40;236201;1199;24139;-71
2021/10/04 02:37:42;;;;;;;13.00;8.90;;;;;;;10.83;74.28;98657.02;235900;1199;24008;-70
2021/10/04 02:42:46;;;;;;;13.80;9.40;;;;;;;10.84;74.48;98651.86;236134;1199;24159;-72
2021/10/04 02:47:50;;;;;;;16.50;9.20;;;;;;;10.81;74.44;98650.50;236318;1193;24078;-71
2021/10/04 02:52:53;;;;;;;16.30;8.20;;;;;;;10.81;74.70;98650.56;236107;1193;23668;-71
2021/10/04 02:57:57;;;;;;;16.50;9.30;;;;;;;10.83;74.59;98657.23;235812;1199;22503;-73
2021/10/04 03:03:07;;;;;;;12.50;9.30;;;;;;;10.84;74.77;98660.59;236028;1199;22713;-72
2021/10/04 03:08:09;;;;;;;17.20;9.60;;;;;;;10.83;74.80;98664.73;235695;1199;24115;-72
2021/10/04 03:13:16;;;;;;;15.80;9.20;;;;;;;10.80;74.63;98666.06;236096;1199;22425;-72
2021/10/04 03:18:20;;;;;;;13.90;9.80;;;;;;;10.78;74.83;98664.20;235770;1199;24089;-73
2021/10/04 03:23:23;;;;;;;16.80;10.70;;;;;;;10.75;74.84;98666.83;236183;1199;22590;-74
2021/10/04 03:28:29;;;;;;;11.40;8.80;;;;;;;10.71;74.94;98668.76;235955;1193;24018;-72
2021/10/04 03:33:32;;;;;;;10.40;7.70;;;;;;;10.70;75.10;98666.59;235297;1199;24045;-73
2021/10/04 03:38:35;;;;;;;14.10;9.90;;;;;;;10.66;74.91;98662.77;236144;1197;22460;-71
2021/10/04 03:43:38;;;;;;;15.40;9.90;;;;;;;10.59;74.92;98670.61;235321;1193;24230;-71
2021/10/04 03:48:42;;;;;;;13.30;9.40;;;;;;;10.53;74.96;98665.02;235600;1200;23558;-71
2021/10/04 03:53:45;;;;;;;13.30;9.00;;;;;;;10.43;74.94;98666.98;235835;1200;24121;-73
2021/10/04 03:58:48;;;;;;;11.70;9.60;;;;;;;10.38;75.11;98665.84;235634;1200;23981;-72
2021/10/04 04:03:52;;;;;;;13.30;10.10;;;;;;;10.31;75.32;98671.52;235323;1199;25209;-73
2021/10/04 04:08:56;;;;;;;13.60;9.00;;;;;;;10.24;75.30;98669.68;235612;1200;24077;-74
2021/10/04 04:13:59;;;;;;;13.60;9.20;;;;;;;10.17;75.57;98669.73;236036;1199;24056;-73
2021/10/04 04:19:02;;;;;;;14.70;9.40;;;;;;;10.11;75.70;98662.35;235855;1193;24097;-71
2021/10/04 04:24:05;;;;;;;15.50;9.40;;;;;;;10.10;75.98;98660.59;235418;1193;22497;-71
2021/10/04 04:29:10;;;;;;;11.10;8.20;;;;;;;10.07;76.01;98664.17;235886;1199;22595;-73
2021/10/04 04:34:23;;;;;;;13.80;8.50;;;;;;;10.04;76.10;98669.30;236220;1193;22423;-73
2021/10/04 04:39:59;;;;;;;13.30;9.60;;;;;;;10.02;76.24;98671.61;236424;1199;24040;-72
2021/10/04 04:45:18;;;;;;;12.00;9.50;;;;;;;10.00;76.29;98676.94;236531;1198;22442;-71
2021/10/04 04:50:20;;;;;;;13.30;8.80;;;;;;;9.96;76.54;98680.21;236538;1193;22423;-72
2021/10/04 04:55:23;;;;;;;13.20;9.10;;;;;;;9.93;76.56;98685.91;236406;1194;24142;-71
2021/10/04 05:00:26;;;;;;;15.30;9.70;;;;;;;9.94;76.67;98695.41;236756;1192;24098;-73
2021/10/04 05:05:29;;;;;;;16.20;10.60;;;;;;;9.93;76.75;98696.08;236204;1199;22589;-71
2021/10/04 05:10:32;;;;;;;17.50;9.80;;;;;;;9.89;76.75;98701.95;235684;1197;24590;-72
2021/10/04 05:15:37;;;;;;;16.10;10.10;;;;;;;9.92;76.79;98709.41;236229;1199;22460;-73
2021/10/04 05:20:40;;;;;;;18.00;10.40;;;;;;;9.97;77.02;98713.48;235785;1193;22439;-73
2021/10/04 05:25:44;;;;;;;16.70;10.90;;;;;;;10.05;77.27;98711.77;235784;1199;22462;-73
2021/10/04 05:30:46;;;;;;;16.90;10.20;;;;;;;10.15;77.29;98717.23;236153;1197;22453;-72
2021/10/04 05:35:50;;;;;;;13.80;9.50;;;;;;;10.21;77.07;98719.34;235841;1200;23161;-71
2021/10/04 05:40:52;;;;;;;17.90;11.30;;;;;;;10.28;77.15;98720.92;235766;1200;22977;-72
2021/10/04 05:46:02;;;;;;;17.00;11.30;;;;;;;10.31;77.02;98716.81;236101;1199;22536;-71
2021/10/04 05:51:05;;;;;;;17.20;11.00;;;;;;;10.40;77.27;98723.48;236151;1199;22419;-73
2021/10/04 05:56:09;;;;;;;15.40;9.80;;;;;;;10.52;77.15;98719.18;236686;1197;25091;-74
2021/10/04 06:01:11;;;;;;;17.10;11.50;;;;;;;10.67;77.06;98723.22;236025;1193;24053;-71
2021/10/04 06:06:15;;;;;;;15.60;11.20;;;;;;;10.84;77.30;98727.69;236691;1198;22453;-73
2021/10/04 06:11:17;;;;;;;14.70;10.70;;;;;;;11.03;77.29;98730.89;236299;1193;22562;-73
2021/10/04 06:16:21;;;;;;;15.40;10.70;;;;;;;11.27;77.34;98735.71;236166;1193;25229;-71
2021/10/04 06:21:25;;;;;;;20.30;12.20;;;;;;;11.48;77.30;98744.84;236070;1200;22438;-72
2021/10/04 06:26:28;;;;;;;23.40;13.40;;;;;;;11.67;77.05;98742.48;236140;1193;22430;-73
2021/10/04 06:31:31;;;;;;;19.40;11.40;;;;;;;11.89;77.12;98754.09;236536;1193;22443;-72
2021/10/04 06:36:34;;;;;;;16.80;12.10;;;;;;;12.13;77.15;98762.38;236659;1193;22908;-73
2021/10/04 06:41:40;;;;;;;19.40;11.80;;;;;;;12.43;77.24;98767.25;236213;1193;22543;-72
2021/10/04 06:46:43;;;;;;;22.60;13.20;;;;;;;12.74;77.31;98771.38;236636;1199;22457;-71
2021/10/04 06:51:47;;;;;;;20.20;12.50;;;;;;;13.02;76.97;98772.52;236284;1199;25421;-73
2021/10/04 06:56:50;;;;;;;21.80;13.40;;;;;;;13.35;77.00;98775.66;236308;1198;24204;-73
2021/10/04 07:01:53;;;;;;;20.80;13.70;;;;;;;13.71;76.90;98777.41;236354;1193;24109;-71
2021/10/04 07:06:57;;;;;;;21.50;13.80;;;;;;;14.07;76.64;98782.23;235939;1199;24215;-72
2021/10/04 07:11:59;;;;;;;19.30;13.00;;;;;;;14.40;76.28;98782.83;236371;1199;25190;-75
2021/10/04 07:17:20;;;;;;;24.90;12.50;;;;;;;14.76;75.91;98788.33;235433;1200;22491;-73
2021/10/04 07:22:22;;;;;;;17.70;10.40;;;;;;;15.09;75.51;98792.51;236075;1193;22480;-73
2021/10/04 07:27:25;;;;;;;15.40;10.10;;;;;;;15.39;75.09;98790.49;236237;1193;24057;-74
2021/10/04 07:32:41;;;;;;;15.10;10.80;;;;;;;15.66;74.64;98796.19;236247;1193;24114;-75
2021/10/04 07:38:00;;;;;;;12.50;8.70;;;;;;;15.94;73.97;98803.13;236000;1193;24103;-74
2021/10/04 07:43:02;;;;;;;13.70;8.30;;;;;;;16.14;73.21;98803.81;236403;1199;24063;-72
2021/10/04 07:48:05;;;;;;;13.10;9.30;;;;;;;16.39;72.87;98805.42;236032;1193;22467;-73
2021/10/04 07:53:08;;;;;;;12.50;9.00;;;;;;;16.61;72.61;98808.73;236345;1193;25323;-72
2021/10/04 07:58:11;;;;;;;13.30;8.10;;;;;;;16.86;72.29;98806.80;236796;1193;22764;-72
2021/10/04 08:03:13;;;;;;;12.10;9.00;;;;;;;17.12;71.84;98814.27;236263;1193;24095;-73
2021/10/04 08:08:16;;;;;;;7.10;6.20;;;;;;;17.36;71.39;98815.46;236518;1199;25231;-72
2021/10/04 08:13:18;;;;;;;5.60;4.70;;;;;;;17.62;70.42;98817.04;236648;1195;25147;-73
2021/10/04 08:18:22;;;;;;;7.10;5.00;;;;;;;17.80;69.44;98815.41;236569;1194;24020;-74
2021/10/04 08:23:25;;;;;;;7.60;5.30;;;;;;;17.94;68.15;98811.98;236617;1199;26053;-73
2021/10/04 08:28:28;;;;;;;5.60;5.00;;;;;;;18.06;67.09;98813.05;236537;1193;22486;-73
2021/10/04 08:33:44;;;;;;;8.00;5.60;;;;;;;18.15;67.11;98811.33;237154;1193;24071;-73
2021/10/04 08:38:47;;;;;;;6.20;5.30;;;;;;;18.28;66.58;98808.48;236781;1199;22453;-74
2021/10/04 08:43:52;;;;;;;8.40;6.40;;;;;;;18.43;66.57;98807.20;236794;1193;25137;-74
2021/10/04 08:48:54;;;;;;;7.70;5.70;;;;;;;18.60;66.32;98802.58;236890;1177;22463;-72
2021/10/04 08:53:57;;;;;;;8.20;5.70;;;;;;;18.75;65.83;98801.80;237005;1199;23215;-74
2021/10/04 08:59:04;;;;;;;7.30;5.70;;;;;;;18.89;65.22;98806.71;236585;1193;22427;-74
2021/10/04 09:04:09;;;;;;;7.40;5.70;;;;;;;19.02;64.89;98803.69;236175;1199;22544;-75
2021/10/04 09:09:14;;;;;;;7.20;6.30;;;;;;;19.12;64.42;98798.55;235929;1199;22451;-74
2021/10/04 09:14:30;;;;;;;6.80;6.00;;;;;;;19.21;64.30;98801.58;236007;1193;24422;-75
2021/10/04 09:19:42;;;;;;;6.70;5.80;;;;;;;19.36;64.18;98804.18;236049;1199;24459;-75
2021/10/04 09:24:47;;;;;;;6.50;5.20;;;;;;;19.56;63.80;98804.16;236155;1193;23513;-72
2021/10/04 09:29:51;;;;;;;11.00;7.10;;;;;;;19.63;62.08;98805.29;235390;1185;25163;-74
2021/10/04 09:35:16;;;;;;;6.60;5.70;;;;;;;19.67;62.11;98794.81;235745;1196;22459;-74
2021/10/04 09:40:46;;;;;;;6.90;5.60;;;;;;;19.76;61.25;98797.45;235975;1193;24067;-73
2021/10/04 09:46:10;;;;;;;6.90;5.80;;;;;;;19.90;60.62;98801.42;236184;1199;22565;-74
2021/10/04 09:51:17;;;;;;;9.70;8.30;;;;;;;20.02;61.00;98798.38;236656;1194;22888;-73
2021/10/04 09:56:29;;;;;;;7.10;5.50;;;;;;;20.18;60.78;98796.58;236693;1193;22600;-73
2021/10/04 10:01:34;;;;;;;8.20;6.10;;;;;;;20.30;60.70;98797.97;236386;1185;24073;-70
2021/10/04 10:06:51;;;;;;;7.50;5.80;;;;;;;20.32;59.55;98795.45;236284;1199;22402;-70
2021/10/04 10:12:09;;;;;;;7.80;7.10;;;;;;;20.34;59.37;98797.19;235762;1193;22432;-72
2021/10/04 10:17:22;;;;;;;6.70;5.90;;;;;;;20.39;59.14;98802.42;235953;1199;22434;-73
2021/10/04 10:22:29;;;;;;;8.40;6.30;;;;;;;20.44;58.54;98800.06;235508;1194;22394;-71
2021/10/04 10:27:41;;;;;;;8.50;6.10;;;;;;;20.45;58.39;98806.99;235736;1199;25194;-70
2021/10/04 10:32:44;;;;;;;6.90;5.20;;;;;;;20.50;58.54;98804.17;235883;1199;22525;-73
2021/10/04 10:37:50;;;;;;;6.30;5.30;;;;;;;20.57;58.22;98795.69;235893;1193;24190;-73
2021/10/04 10:43:05;;;;;;;6.30;5.70;;;;;;;20.61;58.08;98793.36;235926;1199;24146;-71
2021/10/04 10:48:09;;;;;;;6.10;5.10;;;;;;;20.66;58.08;98799.30;235680;1192;22707;-72
2021/10/04 10:53:20;;;;;;;6.30;5.60;;;;;;;20.63;57.95;98796.13;235803;1200;25045;-71
2021/10/04 10:58:26;;;;;;;5.50;5.00;;;;;;;20.67;58.43;98794.06;235855;1200;22423;-73
2021/10/04 11:03:45;;;;;;;6.60;5.30;;;;;;;20.77;58.04;98796.52;235898;1193;22428;-71
2021/10/04 11:08:47;;;;;;;8.70;6.00;;;;;;;20.85;57.72;98794.91;236213;1199;22509;-71
2021/10/04 11:14:00;;;;;;;7.60;5.50;;;;;;;20.96;57.99;98792.89;236059;1192;24021;-73
2021/10/04 11:19:22;;;;;;;6.10;5.40;;;;;;;21.06;57.89;98792.63;236032;1200;25018;-73
2021/10/04 11:24:25;;;;;;;7.80;5.90;;;;;;;21.14;57.00;98795.75;235636;1196;24014;-73
2021/10/04 11:29:35;;;;;;;7.90;5.60;;;;;;;21.12;56.62;98795.39;236182;1193;24241;-72
2021/10/04 11:34:55;;;;;;;7.60;5.50;;;;;;;21.16;57.03;98786.70;235863;1198;22604;-71
2021/10/04 11:40:06;;;;;;;8.50;7.60;;;;;;;21.24;56.80;98790.26;236533;1184;24071;-70
2021/10/04 11:45:11;;;;;;;6.20;5.60;;;;;;;21.37;57.10;98786.79;236711;1199;22442;-74
2021/10/04 11:50:17;;;;;;;8.20;6.10;;;;;;;21.49;56.33;98788.16;235955;1193;25204;-72
2021/10/04 11:55:20;;;;;;;9.30;6.70;;;;;;;21.48;55.87;98781.53;236013;1199;25014;-71
2021/10/04 12:00:23;;;;;;;7.20;5.70;;;;;;;21.54;56.32;98776.30;236090;1193;24034;-72
2021/10/04 12:05:31;;;;;;;6.80;6.00;;;;;;;21.64;56.29;98774.84;236089;1193;24055;-72
2021/10/04 12:10:42;;;;;;;6.80;5.50;;;;;;;21.72;55.82;98780.66;236084;1194;22456;-73
2021/10/04 12:15:50;;;;;;;7.80;5.80;;;;;;;21.73;55.64;98776.23;236061;1199;22477;-73
2021/10/04 12:21:15;;;;;;;7.10;5.60;;;;;;;21.77;55.55;98782.30;236542;1193;22457;-71
2021/10/04 12:26:18;;;;;;;9.50;7.00;;;;;;;21.80;55.59;98775.89;236663;1199;25256;-75
2021/10/04 12:31:35;;;;;;;8.00;6.80;;;;;;;21.83;55.21;98776.33;236626;1193;24010;-73
2021/10/04 12:36:46;;;;;;;6.50;5.50;;;;;;;21.86;55.42;98777.09;236249;1193;24054;-71
2021/10/04 12:42:12;;;;;;;6.60;5.90;;;;;;;21.93;55.38;98775.31;235731;1193;22477;-72
2021/10/04 12:47:32;;;;;;;6.10;5.50;;;;;;;21.96;55.18;98776.62;235902;1193;22564;-73
2021/10/04 12:52:35;;;;;;;7.80;6.40;;;;;;;21.90;54.75;98778.25;236251;1199;25319;-72
2021/10/04 12:57:38;;;;;;;6.70;6.00;;;;;;;21.87;54.92;98781.92;235914;1200;24078;-73
2021/10/04 13:02:41;;;;;;;7.70;6.50;;;;;;;21.91;54.49;98783.63;235834;1199;22474;-73
2021/10/04 13:07:48;;;;;;;7.40;5.40;;;;;;;21.95;54.47;98786.65;235794;1192;22459;-72
2021/10/04 13:12:53;;;;;;;7.70;6.10;;;;;;;21.99;54.66;98782.77;235860;1194;25177;-73
2021/10/04 13:17:57;;;;;;;6.70;6.00;;;;;;;22.05;54.02;98785.66;236192;1200;24075;-73
2021/10/04 13:22:59;;;;;;;6.30;5.40;;;;;;;22.06;53.98;98785.27;235959;1193;25101;-74
2021/10/04 13:28:04;;;;;;;8.40;7.60;;;;;;;22.05;54.09;98785.34;235758;1195;25190;-71
2021/10/04 13:33:07;;;;;;;7.20;6.40;;;;;;;22.04;54.02;98785.42;235641;1199;25986;-74
2021/10/04 13:38:10;;;;;;;29.80;25.00;;;;;;;22.08;54.41;98786.33;235610;1193;24195;-75
2021/10/04 13:43:13;;;;;;;7.10;6.40;;;;;;;22.13;54.27;98792.26;235867;1199;26225;-75
2021/10/04 13:48:16;;;;;;;6.90;5.60;;;;;;;22.11;54.11;98797.98;235989;1194;24054;-74
2021/10/04 13:53:20;;;;;;;7.70;5.70;;;;;;;22.04;53.91;98794.28;236520;1193;24050;-75
2021/10/04 13:58:22;;;;;;;6.70;6.10;;;;;;;21.92;53.92;98798.70;236195;1194;22468;-73
2021/10/04 14:03:26;;;;;;;6.40;5.70;;;;;;;21.79;54.11;98807.42;236511;1192;22463;-74
2021/10/04 14:08:30;;;;;;;7.80;5.70;;;;;;;21.74;54.23;98809.05;238587;1195;22989;-73
2021/10/04 14:13:33;;;;;;;8.10;5.50;;;;;;;21.66;54.28;98807.42;236867;1194;24155;-71
2021/10/04 14:18:36;;;;;;;8.00;5.40;;;;;;;21.64;54.50;98814.80;235391;1193;22449;-74
2021/10/04 14:23:39;;;;;;;6.40;5.10;;;;;;;21.60;54.44;98809.59;236514;1199;24229;-74
2021/10/04 14:28:41;;;;;;;7.50;5.30;;;;;;;21.58;54.13;98809.92;235628;1199;22462;-74
2021/10/04 14:33:44;;;;;;;7.70;6.60;;;;;;;21.51;54.03;98816.17;236064;1199;25295;-75
2021/10/04 14:38:47;;;;;;;6.00;5.50;;;;;;;21.46;54.24;98822.98;235755;1199;24022;-74
2021/10/04 14:43:50;;;;;;;5.50;4.80;;;;;;;21.39;54.72;98823.56;235471;1195;22423;-74
2021/10/04 14:48:54;;;;;;;6.40;5.10;;;;;;;21.27;54.71;98825.80;235726;1197;22438;-75
2021/10/04 14:53:56;;;;;;;5.70;4.90;;;;;;;21.12;54.85;98824.95;235804;1199;22563;-74
2021/10/04 14:59:00;;;;;;;5.10;4.60;;;;;;;20.95;55.33;98823.60;235808;1193;24116;-74
2021/10/04 15:04:04;;;;;;;7.10;6.00;;;;;;;20.81;55.75;98829.75;235387;1194;24047;-76
2021/10/04 15:09:09;;;;;;;8.20;6.30;;;;;;;20.63;56.21;98828.87;235729;1199;24090;-73
2021/10/04 15:14:12;;;;;;;9.50;7.10;;;;;;;20.48;56.62;98827.58;235757;1194;24435;-74
2021/10/04 15:19:15;;;;;;;5.70;5.10;;;;;;;20.35;57.22;98828.59;235850;1199;25204;-71
2021/10/04 15:24:28;;;;;;;6.50;5.00;;;;;;;20.21;57.73;98832.64;235565;1200;22592;-71
2021/10/04 15:29:33;;;;;;;6.50;5.60;;;;;;;20.06;57.89;98834.96;235391;1200;24090;-74
2021/10/04 15:34:35;;;;;;;7.50;5.50;;;;;;;19.91;58.25;98834.45;235197;1195;24026;-72
2021/10/04 15:39:38;;;;;;;7.70;5.30;;;;;;;19.75;58.50;98835.34;235658;1195;22455;-73
2021/10/04 15:44:40;;;;;;;6.80;4.80;;;;;;;19.60;59.01;98838.59;235691;1199;24134;-71
2021/10/04 15:49:43;;;;;;;6.70;6.10;;;;;;;19.50;59.77;98837.46;235481;1200;24203;-73
2021/10/04 15:54:46;;;;;;;8.20;6.50;;;;;;;19.39;60.31;98840.23;235533;1199;24200;-74
2021/10/04 15:59:48;;;;;;;10.00;7.00;;;;;;;19.24;60.78;98842.17;235954;1199;22433;-73
2021/10/04 16:04:51;;;;;;;10.40;7.70;;;;;;;19.07;61.15;98838.73;235853;1199;24079;-74
2021/10/04 16:09:57;;;;;;;7.70;5.70;;;;;;;18.86;61.42;98845.55;235930;1187;25274;-74
2021/10/04 16:15:06;;;;;;;9.20;6.30;;;;;;;18.64;61.82;98848.52;236011;1199;24085;-74
2021/10/04 16:20:09;;;;;;;12.80;7.20;;;;;;;18.45;62.45;98853.95;235540;1200;22542;-71
2021/10/04 16:25:12;;;;;;;10.30;7.00;;;;;;;18.24;63.00;98852.98;236052;1199;23006;-72
2021/10/04 16:30:15;;;;;;;12.60;7.50;;;;;;;18.04;63.32;98863.23;235448;1193;24061;-73
2021/10/04 16:35:19;;;;;;;11.50;6.50;;;;;;;17.82;63.71;98864.55;235249;1199;24160;-74
2021/10/04 16:40:22;;;;;;;9.90;6.20;;;;;;;17.61;64.17;98867.48;235689;1199;24140;-73
2021/10/04 16:45:25;;;;;;;14.60;7.60;;;;;;;17.43;64.64;98871.02;235652;1193;24088;-74
2021/10/04 16:50:29;;;;;;;12.00;7.70;;;;;;;17.26;65.12;98872.27;235778;1200;24094;-74
2021/10/04 16:55:32;;;;;;;12.70;7.40;;;;;;;17.10;65.46;98873.66;236107;1194;22910;-72
2021/10/04 17:00:37;;;;;;;10.70;7.10;;;;;;;16.92;65.70;98878.02;236152;1199;22444;-71
2021/10/04 17:05:40;;;;;;;10.20;6.70;;;;;;;16.77;66.18;98882.82;237054;1198;22451;-76
2021/10/04 17:10:42;;;;;;;12.00;9.20;;;;;;;16.66;66.86;98887.70;236511;1200;25430;-75
2021/10/04 17:15:46;;;;;;;12.10;8.80;;;;;;;16.56;67.22;98890.91;235516;1200;22779;-74
2021/10/04 17:20:48;;;;;;;13.30;9.10;;;;;;;16.45;67.48;98894.77;235263;1193;24171;-75
2021/10/04 17:25:51;;;;;;;11.60;8.60;;;;;;;16.34;67.78;98897.95;235282;1200;25194;-75
2021/10/04 17:30:54;;;;;;;14.80;9.40;;;;;;;16.26;68.22;98900.50;236085;1195;22599;-72
2021/10/04 17:35:57;;;;;;;13.20;10.80;;;;;;;16.17;68.57;98903.00;235747;1200;24030;-74
2021/10/04 17:40:59;;;;;;;14.40;9.60;;;;;;;16.08;68.65;98907.32;236028;1193;24110;-74
2021/10/04 17:46:02;;;;;;;18.20;11.90;;;;;;;15.99;68.93;98911.88;235930;1198;25308;-74
2021/10/04 17:51:05;;;;;;;19.70;13.60;;;;;;;15.93;69.21;98909.82;235480;1200;25381;-72
2021/10/04 17:56:07;;;;;;;21.20;14.50;;;;;;;15.84;69.30;98917.18;235735;1200;24026;-74
2021/10/04 18:01:10;;;;;;;26.10;18.20;;;;;;;15.74;69.43;98918.91;235730;1177;22586;-73
2021/10/04 18:06:14;;;;;;;26.90;16.80;;;;;;;15.68;69.67;98929.48;235670;1199;24074;-74
2021/10/04 18:11:17;;;;;;;28.80;18.00;;;;;;;15.63;70.06;98930.83;235651;1200;22438;-74
2021/10/04 18:16:23;;;;;;;31.40;19.50;;;;;;;15.61;70.45;98923.83;235552;1200;23960;-73
2021/10/04 18:21:29;;;;;;;29.80;18.60;;;;;;;15.55;70.54;98926.19;235352;1199;25636;-74
2021/10/04 18:26:35;;;;;;;29.80;19.40;;;;;;;15.51;70.64;98928.06;235625;1199;22528;-74
2021/10/04 18:31:39;;;;;;;38.90;21.70;;;;;;;15.48;70.87;98932.79;236099;1184;25198;-72
2021/10/04 18:36:44;;;;;;;39.00;23.70;;;;;;;15.44;71.17;98933.14;235815;1199;24002;-73
2021/10/04 18:41:46;;;;;;;35.10;21.60;;;;;;;15.36;71.33;98937.19;235737;1199;24060;-74
2021/10/04 18:46:49;;;;;;;35.20;21.40;;;;;;;15.29;71.43;98940.42;235624;1199;24075;-75
2021/10/04 18:51:51;;;;;;;34.50;23.60;;;;;;;15.24;71.75;98939.98;235442;1199;25203;-74
2021/10/04 18:56:55;;;;;;;40.10;23.80;;;;;;;15.20;71.95;98942.57;236149;1198;22595;-74
2021/10/04 19:01:58;;;;;;;36.50;22.70;;;;;;;15.16;72.16;98941.29;235740;1200;22491;-74
2021/10/04 19:07:02;;;;;;;37.20;22.60;;;;;;;15.12;72.29;98941.63;235760;1199;24062;-73
2021/10/04 19:12:07;;;;;;;35.00;22.90;;;;;;;15.07;72.52;98940.16;235952;1199;22448;-72
2021/10/04 19:17:12;;;;;;;35.70;23.30;;;;;;;15.02;72.60;98939.48;236164;1199;24059;-72
2021/10/04 19:22:17;;;;;;;33.80;20.60;;;;;;;14.95;72.69;98934.06;235652;1196;25183;-72
2021/10/04 19:27:22;;;;;;;38.90;22.10;;;;;;;14.89;72.92;98933.64;235557;1199;25207;-73
2021/10/04 19:32:25;;;;;;;38.40;26.30;;;;;;;14.83;73.42;98937.46;235828;1199;24094;-74
2021/10/04 19:37:28;;;;;;;44.30;28.30;;;;;;;14.79;73.87;98938.11;235619;1199;23149;-71
2021/10/04 19:42:30;;;;;;;39.00;24.00;;;;;;;14.73;74.03;98942.81;235408;1200;24194;-74
2021/10/04 19:47:33;;;;;;;42.60;25.50;;;;;;;14.64;74.11;98938.42;235782;1193;24053;-74
2021/10/04 19:52:36;;;;;;;41.00;28.50;;;;;;;14.54;74.26;98940.02;236145;1199;22562;-75
2021/10/04 19:57:39;;;;;;;47.40;29.60;;;;;;;14.49;74.54;98939.86;235616;1200;23831;-74
2021/10/04 20:02:45;;;;;;;48.30;31.00;;;;;;;14.44;74.75;98930.90;235682;1199;22513;-74
2021/10/04 20:07:48;;;;;;;42.70;28.20;;;;;;;14.42;75.03;98931.96;235408;1199;22424;-74
2021/10/04 20:12:50;;;;;;;46.90;31.00;;;;;;;14.49;75.40;98934.76;235273;1199;24045;-73
2021/10/04 20:17:54;;;;;;;52.40;33.60;;;;;;;14.60;75.69;98934.31;235704;1192;24061;-72
2021/10/04 20:22:58;;;;;;;50.40;31.40;;;;;;;14.72;75.76;98929.59;235230;1201;25217;-72
2021/10/04 20:28:01;;;;;;;48.30;31.90;;;;;;;14.82;75.72;98920.19;235362;1193;24184;-73
2021/10/04 20:33:03;;;;;;;48.50;31.30;;;;;;;14.86;75.60;98918.30;235589;1197;22432;-72
2021/10/04 20:38:06;;;;;;;42.70;29.80;;;;;;;14.84;75.60;98920.23;235668;1193;24246;-71
2021/10/04 20:43:08;;;;;;;45.60;28.70;;;;;;;14.78;75.38;98923.16;235459;1194;24069;-74
2021/10/04 20:48:11;;;;;;;49.90;31.30;;;;;;;14.68;75.09;98919.92;235464;1199;24063;-74
2021/10/04 20:53:14;;;;;;;51.30;33.30;;;;;;;14.57;75.07;98911.29;235289;1196;24050;-72
2021/10/04 20:58:16;;;;;;;56.20;35.80;;;;;;;14.47;75.21;98917.88;235266;1200;24264;-73
2021/10/04 21:03:19;;;;;;;58.50;33.60;;;;;;;14.36;75.43;98921.82;235328;1200;25243;-71
2021/10/04 21:08:22;;;;;;;56.00;35.50;;;;;;;14.28;75.63;98917.79;235393;1193;22448;-72
2021/10/04 21:13:24;;;;;;;63.20;37.10;;;;;;;14.21;76.03;98913.47;235619;1199;22419;-73
2021/10/04 21:18:27;;;;;;;59.30;36.80;;;;;;;14.17;76.23;98909.05;235489;1199;24097;-73
2021/10/04 21:23:30;;;;;;;55.90;33.00;;;;;;;14.12;76.29;98910.79;235626;1198;22861;-73
2021/10/04 21:28:33;;;;;;;44.10;25.90;;;;;;;14.06;76.40;98904.10;235332;1194;23991;-73
2021/10/04 21:33:35;;;;;;;38.10;25.10;;;;;;;14.01;76.56;98898.90;235368;1200;22469;-73
2021/10/04 21:38:38;;;;;;;34.50;24.00;;;;;;;13.98;76.72;98897.17;235387;1200;25226;-74
2021/10/04 21:43:41;;;;;;;36.90;23.90;;;;;;;13.98;77.09;98894.54;235473;1199;25150;-74
2021/10/04 21:48:43;;;;;;;32.40;21.10;;;;;;;13.98;77.10;98894.98;235538;1199;24732;-74
2021/10/04 21:53:46;;;;;;;34.50;21.30;;;;;;;13.96;77.16;98887.94;235435;1196;22437;-74
2021/10/04 21:58:50;;;;;;;33.30;23.00;;;;;;;13.93;77.24;98886.98;235376;1199;24142;-74
2021/10/04 22:14:23;;;;;;;30.20;19.00;;;;;;;13.79;77.37;98882.32;235809;1193;22460;-74
2021/10/04 22:19:26;;;;;;;32.30;21.30;;;;;;;13.76;77.51;98871.13;235136;1200;24062;-73
2021/10/04 22:24:28;;;;;;;30.90;21.70;;;;;;;13.75;77.68;98865.60;235759;1198;24074;-74
2021/10/04 22:29:30;;;;;;;29.90;19.20;;;;;;;13.69;77.41;98873.49;235398;1198;24177;-71
2021/10/04 22:34:33;;;;;;;34.20;20.80;;;;;;;13.63;77.51;98874.17;235647;1199;25473;-72
2021/10/04 22:39:35;;;;;;;32.60;22.50;;;;;;;13.60;77.59;98872.09;235724;1197;22880;-71
2021/10/04 22:44:38;;;;;;;34.50;23.00;;;;;;;13.58;77.88;98868.98;235580;1199;25216;-72
2021/10/04 22:49:40;;;;;;;30.30;20.20;;;;;;;13.53;77.85;98867.20;235837;1177;25187;-73
2021/10/04 22:55:00;;;;;;;31.30;20.90;;;;;;;13.47;77.82;98867.72;235732;1192;22452;-72
2021/10/04 23:00:04;;;;;;;34.20;22.80;;;;;;;13.41;78.11;98865.96;235679;1199;22790;-73
2021/10/04 23:05:07;;;;;;;36.70;23.80;;;;;;;13.39;78.20;98863.50;235884;1198;24107;-74
2021/10/04 23:10:10;;;;;;;33.20;21.70;;;;;;;13.29;77.84;98861.07;235244;1186;25323;-74
2021/10/04 23:15:14;;;;;;;32.40;21.10;;;;;;;13.14;77.63;98856.48;235327;1200;24089;-72
2021/10/04 23:20:17;;;;;;;37.70;24.50;;;;;;;13.04;77.83;98865.31;235278;1200;22415;-71
2021/10/04 23:25:20;;;;;;;36.70;24.60;;;;;;;12.96;77.92;98860.20;235247;1198;24040;-72
2021/10/04 23:30:31;;;;;;;33.50;21.80;;;;;;;12.88;78.22;98857.49;235086;1200;25327;-71
2021/10/04 23:35:33;;;;;;;33.10;22.00;;;;;;;12.77;78.29;98856.21;235710;1199;23976;-71